Time;durP1;ratioP1;P1;durP2;ratioP2;P2;SDS_P1;SDS_P2;PMS_P1;PMS_P2;Temp;Humidity;BMP_temperature;BMP_pressure;BME280_temperature;BME280_humidity;BME280_pressure;Samples;Min_cycle;Max_cycle;Signal;HPM_P1;HPM_P2
2022/12/30 00:00:05;;;;;;;36.03;4.20;;;6.50;99.90;;;;;;5077111;28;20093;-82
2022/12/30 00:02:31;;;;;;;41.50;4.72;;;6.50;99.90;;;;;;5077024;28;20048;-84
2022/12/30 00:04:57;;;;;;;32.28;3.88;;;6.50;99.90;;;;;;5076131;28;20115;-80
2022/12/30 00:07:23;;;;;;;37.35;3.97;;;6.50;99.90;;;;;;5077158;28;20044;-86
2022/12/30 00:09:49;;;;;;;29.17;3.90;;;6.40;99.90;;;;;;5076590;28;20052;-81
2022/12/30 00:34:21;;;;;;;32.13;4.05;;;6.20;99.90;;;;;;5085218;28;20057;-81
2022/12/30 00:36:49;;;;;;;35.67;3.63;;;6.10;99.90;;;;;;5083268;28;20052;-80
2022/12/30 00:39:15;;;;;;;36.97;3.95;;;6.10;99.90;;;;;;5079700;28;20053;-81
2022/12/30 00:44:25;;;;;;;36.67;4.07;;;6.00;99.90;;;;;;5077299;28;20052;-82
2022/12/30 00:46:51;;;;;;;36.40;4.40;;;6.00;99.90;;;;;;5076111;28;20040;-81
2022/12/30 00:57:30;;;;;;;40.35;2.67;;;5.90;99.90;;;;;;5077654;28;20114;-80
2022/12/30 00:59:56;;;;;;;33.65;3.50;;;5.90;99.90;;;;;;5075870;28;20051;-82
2022/12/30 01:02:22;;;;;;;34.28;3.17;;;5.90;99.90;;;;;;5076426;28;20043;-81
2022/12/30 01:04:48;;;;;;;32.22;3.47;;;6.00;99.90;;;;;;5076848;28;20053;-78
2022/12/30 01:07:14;;;;;;;23.98;2.15;;;5.90;99.90;;;;;;5076181;28;20469;-83
2022/12/30 01:09:40;;;;;;;33.50;3.00;;;5.90;99.90;;;;;;5076378;28;20465;-83
2022/12/30 01:12:08;;;;;;;29.40;3.08;;;6.00;99.90;;;;;;5076370;28;20135;-82
2022/12/30 01:14:49;;;;;;;25.80;2.67;;;5.90;99.90;;;;;;5076991;28;20041;-80
2022/12/30 01:17:25;;;;;;;37.38;2.40;;;5.80;99.90;;;;;;5076046;28;20120;-81
2022/12/30 01:19:50;;;;;;;31.40;2.42;;;5.80;99.90;;;;;;5076787;28;20040;-83
2022/12/30 01:22:16;;;;;;;29.83;4.35;;;5.80;99.90;;;;;;5074938;28;20499;-82
2022/12/30 01:24:42;;;;;;;35.13;4.90;;;5.80;99.90;;;;;;5075428;28;20044;-82
2022/12/30 01:27:08;;;;;;;37.95;2.50;;;5.80;99.90;;;;;;5074316;28;20055;-82
2022/12/30 01:29:36;;;;;;;27.60;2.60;;;5.80;99.90;;;;;;5057580;28;20049;-81
2022/12/30 01:32:04;;;;;;;39.35;3.63;;;5.80;99.90;;;;;;5058741;28;20052;-80
2022/12/30 01:34:30;;;;;;;35.60;3.70;;;5.80;99.90;;;;;;5075179;28;20048;-82
2022/12/30 01:36:56;;;;;;;27.33;3.13;;;5.80;99.90;;;;;;5075692;28;20049;-81
2022/12/30 01:39:22;;;;;;;40.60;4.05;;;5.70;99.90;;;;;;5074170;28;20500;-82
2022/12/30 01:41:48;;;;;;;30.63;3.58;;;5.80;99.90;;;;;;5075632;28;20063;-82
2022/12/30 01:44:44;;;;;;;44.40;4.30;;;5.80;99.90;;;;;;5075976;28;20040;-80
2022/12/30 01:47:14;;;;;;;47.70;5.18;;;5.80;99.90;;;;;;5075349;28;20472;-81
2022/12/30 01:49:46;;;;;;;45.45;3.92;;;5.80;99.90;;;;;;5075595;28;20499;-82
2022/12/30 01:52:15;;;;;;;31.10;3.60;;;5.80;99.90;;;;;;5075222;28;20056;-87
2022/12/30 01:54:41;;;;;;;27.42;3.72;;;5.70;99.90;;;;;;5076026;28;20052;-83
2022/12/30 01:57:07;;;;;;;36.45;3.78;;;5.60;99.90;;;;;;5074469;28;20460;-79
2022/12/30 01:59:34;;;;;;;39.17;4.10;;;5.60;99.90;;;;;;5057873;28;20131;-84
2022/12/30 02:02:00;;;;;;;;;;;5.60;99.90;;;;;;5075093;28;20049;-83
2022/12/30 02:04:29;;;;;;;28.23;2.63;;;5.60;99.90;;;;;;5074153;28;20003;-83
2022/12/30 02:07:12;;;;;;;26.73;3.50;;;5.50;99.90;;;;;;5073993;28;20454;-81
2022/12/30 02:09:38;;;;;;;31.83;3.40;;;5.50;99.90;;;;;;5075969;28;20415;-81
2022/12/30 02:12:05;;;;;;;29.88;3.13;;;5.60;99.90;;;;;;5074619;28;20210;-83
2022/12/30 02:14:36;;;;;;;35.03;3.00;;;5.50;99.90;;;;;;5074449;28;20131;-82
2022/12/30 02:17:18;;;;;;;38.55;3.65;;;5.50;99.90;;;;;;5076223;28;20067;-80
2022/12/30 02:20:08;;;;;;;18.95;2.55;;;5.50;99.90;;;;;;5074528;28;20127;-80
2022/12/30 02:23:19;;;;;;;21.27;3.08;;;5.50;99.90;;;;;;5057492;28;20102;-79
2022/12/30 02:26:11;;;;;;;34.38;3.33;;;5.50;99.90;;;;;;5067600;28;20471;-80
2022/12/30 02:28:55;;;;;;;36.42;3.47;;;5.50;99.90;;;;;;5075454;28;20051;-80
2022/12/30 02:31:33;;;;;;;33.25;3.80;;;5.50;99.90;;;;;;5073903;28;20105;-81
2022/12/30 02:34:13;;;;;;;33.15;4.18;;;5.50;99.90;;;;;;5075132;28;20113;-79
2022/12/30 02:36:49;;;;;;;27.90;3.85;;;5.40;99.90;;;;;;5057369;28;20090;-79
2022/12/30 02:39:35;;;;;;;38.20;4.10;;;5.50;99.90;;;;;;5075390;28;20041;-81
2022/12/30 02:45:14;;;;;;;58.50;4.88;;;5.40;99.90;;;;;;5074609;28;20117;-81
2022/12/30 02:47:51;;;;;;;23.88;4.78;;;5.30;99.90;;;;;;5074527;28;20052;-79
2022/12/30 02:53:12;;;;;;;33.70;4.30;;;5.30;99.90;;;;;;5075467;28;20094;-82
2022/12/30 02:55:38;;;;;;;30.17;4.07;;;5.30;99.90;;;;;;5056543;28;20051;-83
2022/12/30 02:58:03;;;;;;;40.60;4.43;;;5.20;99.90;;;;;;5074076;28;20045;-80
2022/12/30 03:04:27;;;;;;;42.70;5.07;;;5.30;99.90;;;;;;5074780;28;20060;-81
2022/12/30 03:07:11;;;;;;;33.70;3.55;;;5.20;99.90;;;;;;5073627;28;20084;-82
2022/12/30 03:13:10;;;;;;;37.67;3.80;;;5.10;99.90;;;;;;5073503;28;20060;-81
2022/12/30 03:15:53;;;;;;;33.17;3.55;;;5.10;99.90;;;;;;5071093;28;20052;-79
2022/12/30 03:18:22;;;;;;;26.30;4.05;;;5.10;99.90;;;;;;5073665;28;20088;-81
2022/12/30 03:20:50;;;;;;;25.95;3.28;;;5.00;99.90;;;;;;5073394;28;20392;-83
2022/12/30 03:28:48;;;;;;;49.75;4.70;;;4.90;99.90;;;;;;5075412;28;20044;-80
2022/12/30 03:31:15;;;;;;;29.38;2.78;;;4.90;99.90;;;;;;5073657;28;20056;-80
2022/12/30 03:33:42;;;;;;;36.88;4.68;;;4.80;99.90;;;;;;5073458;28;20044;-81
2022/12/30 03:36:22;;;;;;;32.87;4.00;;;4.70;99.90;;;;;;5075199;28;20384;-79
2022/12/30 03:39:01;;;;;;;30.17;3.88;;;4.70;99.90;;;;;;5075045;28;20275;-80
2022/12/30 03:41:29;;;;;;;29.73;3.85;;;4.70;99.90;;;;;;5074503;28;20499;-83
2022/12/30 03:43:55;;;;;;;24.40;3.22;;;4.60;99.90;;;;;;5056959;28;20702;-82
2022/12/30 03:46:28;;;;;;;31.60;3.53;;;4.60;99.90;;;;;;5073839;28;20052;-80
2022/12/30 03:48:53;;;;;;;25.88;3.30;;;4.60;99.90;;;;;;5074147;28;20084;-82
2022/12/30 03:51:19;;;;;;;36.50;3.88;;;4.50;99.90;;;;;;5072971;28;20091;-80
2022/12/30 03:53:45;;;;;;;30.42;3.95;;;4.50;99.90;;;;;;5075240;28;20045;-81
2022/12/30 03:56:10;;;;;;;30.08;3.63;;;4.40;99.90;;;;;;5072355;28;20055;-81
2022/12/30 03:58:36;;;;;;;33.03;3.95;;;4.40;99.90;;;;;;5074135;28;20057;-82
2022/12/30 04:01:02;;;;;;;23.73;4.40;;;4.40;99.90;;;;;;5055857;28;20370;-80
2022/12/30 04:03:27;;;;;;;38.13;5.07;;;4.30;99.90;;;;;;5074629;28;20044;-81
2022/12/30 04:05:54;;;;;;;26.63;4.28;;;4.40;99.90;;;;;;5072830;28;20044;-83
2022/12/30 04:08:23;;;;;;;25.92;4.00;;;4.40;99.90;;;;;;5072808;28;20055;-82
2022/12/30 04:10:50;;;;;;;34.65;4.47;;;4.40;99.90;;;;;;5074171;28;20051;-79
2022/12/30 04:13:16;;;;;;;41.63;5.30;;;4.50;99.90;;;;;;5055737;28;20105;-81
2022/12/30 04:15:41;;;;;;;26.67;4.97;;;4.50;99.90;;;;;;5074618;28;20044;-81
2022/12/30 04:18:07;;;;;;;33.75;4.30;;;4.50;99.90;;;;;;5109585;28;20045;-82
2022/12/30 04:20:33;;;;;;;35.90;4.25;;;4.50;99.90;;;;;;5076664;28;20048;-81
2022/12/30 04:22:59;;;;;;;25.95;4.20;;;4.50;99.90;;;;;;5075159;28;20045;-81
2022/12/30 04:25:26;;;;;;;28.73;4.97;;;4.40;99.90;;;;;;5075208;28;20052;-83
2022/12/30 04:27:52;;;;;;;25.88;3.83;;;4.40;99.90;;;;;;5076844;28;20040;-81
2022/12/30 04:30:18;;;;;;;37.05;5.88;;;4.40;99.90;;;;;;5077955;28;20381;-83
2022/12/30 04:32:44;;;;;;;30.10;3.88;;;4.30;99.90;;;;;;5077325;28;20174;-81
2022/12/30 04:35:09;;;;;;;28.75;4.00;;;4.40;99.90;;;;;;5078661;28;20082;-80
2022/12/30 04:37:35;;;;;;;22.63;4.00;;;4.30;99.90;;;;;;5077225;28;20088;-86
2022/12/30 04:40:01;;;;;;;25.10;4.13;;;4.30;99.90;;;;;;5078114;28;20052;-82
2022/12/30 04:42:26;;;;;;;30.15;4.13;;;4.30;99.90;;;;;;5076494;28;20389;-80
2022/12/30 04:44:52;;;;;;;28.15;6.20;;;4.30;99.90;;;;;;5076220;28;20084;-80
2022/12/30 04:47:18;;;;;;;27.13;5.00;;;4.40;99.90;;;;;;5077774;28;20357;-82
2022/12/30 04:49:44;;;;;;;27.60;4.07;;;4.30;99.90;;;;;;5059875;28;20048;-82
2022/12/30 04:52:10;;;;;;;31.73;4.23;;;4.30;99.90;;;;;;5077690;28;20416;-81
2022/12/30 04:54:36;;;;;;;32.88;4.90;;;4.20;99.90;;;;;;5076869;28;20052;-82
2022/12/30 04:57:01;;;;;;;25.98;3.70;;;4.20;99.90;;;;;;5075530;28;20052;-79
2022/12/30 04:59:27;;;;;;;23.98;3.30;;;4.20;99.90;;;;;;5077242;28;20041;-79
2022/12/30 05:01:53;;;;;;;28.63;4.40;;;4.10;99.90;;;;;;5062164;28;20127;-80
2022/12/30 05:04:19;;;;;;;36.42;4.20;;;4.10;99.90;;;;;;5079132;28;20131;-81
2022/12/30 05:06:44;;;;;;;31.80;4.32;;;4.10;99.90;;;;;;5076201;28;20066;-81
2022/12/30 05:09:10;;;;;;;33.03;3.70;;;4.00;99.90;;;;;;5078105;28;20051;-79
2022/12/30 05:11:36;;;;;;;21.17;3.53;;;4.00;99.90;;;;;;5062001;28;20048;-79
2022/12/30 05:14:01;;;;;;;27.40;4.40;;;4.10;99.90;;;;;;5075892;28;20047;-79
2022/12/30 05:16:27;;;;;;;31.98;4.50;;;4.00;99.90;;;;;;5076172;28;20048;-81
2022/12/30 05:18:53;;;;;;;29.40;3.67;;;4.00;99.90;;;;;;5078263;28;20048;-82
2022/12/30 05:21:18;;;;;;;28.23;3.25;;;4.10;99.90;;;;;;5084287;28;20133;-81
2022/12/30 05:26:29;;;;;;;33.67;3.80;;;4.00;99.90;;;;;;5092524;28;20129;-81
2022/12/30 05:28:54;;;;;;;35.53;3.72;;;4.10;99.90;;;;;;5083915;28;20048;-77
2022/12/30 05:31:20;;;;;;;29.30;3.25;;;4.10;99.90;;;;;;5080773;28;20067;-80
2022/12/30 05:33:46;;;;;;;35.90;4.30;;;4.10;99.90;;;;;;5082302;28;20056;-80
2022/12/30 05:36:13;;;;;;;24.85;3.45;;;4.30;99.90;;;;;;5079420;28;20055;-80
2022/12/30 05:38:39;;;;;;;34.05;3.53;;;4.20;99.90;;;;;;5077621;28;20053;-83
2022/12/30 05:41:05;;;;;;;31.00;3.60;;;4.20;99.90;;;;;;5076627;28;20045;-82
2022/12/30 05:43:31;;;;;;;25.83;4.00;;;4.10;99.90;;;;;;5077085;28;20437;-79
2022/12/30 05:45:57;;;;;;;31.88;3.67;;;4.10;99.90;;;;;;5077611;28;20114;-82
2022/12/30 05:48:23;;;;;;;26.40;3.35;;;4.20;99.90;;;;;;5076774;28;20135;-80
2022/12/30 05:50:50;;;;;;;37.37;3.87;;;4.10;99.90;;;;;;5076755;28;20056;-80
2022/12/30 05:53:16;;;;;;;30.58;3.53;;;4.10;99.90;;;;;;5075500;28;20049;-80
2022/12/30 05:55:42;;;;;;;28.38;4.53;;;4.10;99.90;;;;;;5075419;28;20047;-82
2022/12/30 05:58:08;;;;;;;41.85;4.93;;;4.20;99.90;;;;;;5059909;28;20135;-79
2022/12/30 06:00:34;;;;;;;29.70;4.07;;;4.20;99.90;;;;;;5075629;28;20075;-79
2022/12/30 06:03:00;;;;;;;36.97;4.20;;;4.20;99.90;;;;;;5075241;28;20090;-80
2022/12/30 06:05:26;;;;;;;42.20;3.78;;;4.10;99.90;;;;;;5058171;28;20080;-80
2022/12/30 06:07:52;;;;;;;24.25;2.78;;;4.20;99.90;;;;;;5075072;28;20121;-78
2022/12/30 06:10:18;;;;;;;31.38;4.95;;;4.10;99.90;;;;;;5076026;28;20045;-82
2022/12/30 06:12:43;;;;;;;26.05;3.15;;;4.20;99.90;;;;;;5074640;28;20048;-81
2022/12/30 06:15:09;;;;;;;23.60;2.85;;;4.20;99.90;;;;;;5075607;28;20476;-81
2022/12/30 06:17:35;;;;;;;27.48;4.10;;;4.20;99.90;;;;;;5074928;28;20051;-77
2022/12/30 06:20:02;;;;;;;22.67;3.55;;;4.20;99.90;;;;;;5074902;28;20053;-79
2022/12/30 06:22:27;;;;;;;32.35;3.58;;;4.20;99.90;;;;;;5075413;28;20123;-81
2022/12/30 06:24:53;;;;;;;25.27;3.60;;;4.20;99.90;;;;;;5057823;28;20116;-80
2022/12/30 06:27:19;;;;;;;38.25;4.53;;;4.20;99.90;;;;;;5074719;28;20056;-80
2022/12/30 06:29:44;;;;;;;31.67;3.65;;;4.20;99.90;;;;;;5075176;28;20041;-82
2022/12/30 06:32:10;;;;;;;37.70;3.83;;;4.30;99.90;;;;;;5075250;28;20045;-82
2022/12/30 06:34:36;;;;;;;38.78;3.42;;;4.20;99.90;;;;;;5073312;28;20044;-79
2022/12/30 06:37:02;;;;;;;31.60;3.45;;;4.20;99.90;;;;;;5074343;28;20444;-78
2022/12/30 06:39:28;;;;;;;25.83;3.25;;;4.20;99.90;;;;;;5074633;28;20055;-81
2022/12/30 06:41:53;;;;;;;28.55;2.92;;;4.20;99.90;;;;;;5073279;28;20044;-81
2022/12/30 06:44:19;;;;;;;26.73;3.75;;;4.20;99.90;;;;;;5074921;28;20048;-83
2022/12/30 06:46:45;;;;;;;28.67;3.17;;;4.20;99.90;;;;;;5074125;28;20393;-82
2022/12/30 06:49:10;;;;;;;28.08;3.70;;;4.30;99.90;;;;;;5056936;28;20372;-82
2022/12/30 06:51:36;;;;;;;25.17;3.60;;;4.30;99.90;;;;;;5074544;28;20074;-83
2022/12/30 06:54:02;;;;;;;31.13;4.13;;;4.20;99.90;;;;;;5074625;28;20105;-82
2022/12/30 06:56:27;;;;;;;34.30;4.28;;;4.20;99.90;;;;;;5073541;28;20052;-83
2022/12/30 06:58:53;;;;;;;30.42;4.65;;;4.20;99.90;;;;;;5075802;28;20131;-81
2022/12/30 07:01:19;;;;;;;36.75;3.42;;;4.20;99.90;;;;;;5074092;28;20135;-80
2022/12/30 07:03:45;;;;;;;35.20;4.90;;;4.20;99.90;;;;;;5074708;28;20045;-84
2022/12/30 07:06:10;;;;;;;32.80;3.65;;;4.20;99.90;;;;;;5073873;28;20047;-79
2022/12/30 07:08:36;;;;;;;28.23;3.88;;;4.20;99.90;;;;;;5073481;28;20040;-82
2022/12/30 07:11:02;;;;;;;17.85;2.90;;;4.20;99.90;;;;;;5074042;28;20040;-78
2022/12/30 07:13:28;;;;;;;36.28;4.72;;;4.20;99.90;;;;;;5073969;28;20040;-85
2022/12/30 07:15:54;;;;;;;32.60;3.60;;;4.20;99.90;;;;;;5073719;28;20054;-81
2022/12/30 07:18:20;;;;;;;33.10;5.43;;;4.20;99.90;;;;;;5073499;28;20091;-83
2022/12/30 07:20:45;;;;;;;25.70;3.50;;;4.10;99.90;;;;;;5056166;28;20485;-80
2022/12/30 07:23:12;;;;;;;42.38;4.47;;;4.10;99.90;;;;;;5072868;28;20105;-82
2022/12/30 07:25:38;;;;;;;24.83;3.50;;;4.20;99.90;;;;;;5074114;28;20044;-82
2022/12/30 07:28:05;;;;;;;33.75;3.55;;;4.10;99.90;;;;;;5074172;28;20048;-81
2022/12/30 07:30:32;;;;;;;35.17;3.78;;;4.10;99.90;;;;;;5073700;28;20113;-83
2022/12/30 07:32:58;;;;;;;40.47;4.82;;;4.10;99.90;;;;;;5072600;28;20048;-83
2022/12/30 07:35:24;;;;;;;30.40;3.63;;;4.10;99.90;;;;;;5074423;28;20079;-80
2022/12/30 07:37:51;;;;;;;37.45;6.20;;;4.00;99.90;;;;;;5073475;28;20044;-81
2022/12/30 07:40:17;;;;;;;32.92;4.43;;;4.00;99.90;;;;;;5056235;28;20508;-79
2022/12/30 07:42:43;;;;;;;19.77;3.00;;;4.10;99.90;;;;;;5073797;28;20052;-80
2022/12/30 07:45:09;;;;;;;28.38;3.63;;;4.00;99.90;;;;;;5074595;28;20049;-81
2022/12/30 07:47:36;;;;;;;35.53;4.45;;;4.00;99.90;;;;;;5073909;28;20485;-78
2022/12/30 07:50:02;;;;;;;;;;;4.00;99.90;;;;;;5074670;28;20064;-79
2022/12/30 07:52:28;;;;;;;32.93;5.30;;;4.10;99.90;;;;;;5073502;28;20367;-79
2022/12/30 07:54:54;;;;;;;36.42;4.18;;;4.10;99.90;;;;;;5074340;28;20279;-79
2022/12/30 07:57:20;;;;;;;30.10;3.45;;;4.10;99.90;;;;;;5074227;28;20124;-77
2022/12/30 07:59:45;;;;;;;39.33;4.75;;;4.10;99.90;;;;;;5076048;28;20044;-82
2022/12/30 08:02:11;;;;;;;31.55;3.25;;;4.20;99.90;;;;;;5077199;28;20051;-82
2022/12/30 08:04:37;;;;;;;26.35;3.47;;;4.20;99.90;;;;;;5077200;28;20084;-80
2022/12/30 08:07:03;;;;;;;26.20;3.10;;;4.20;99.90;;;;;;5077551;28;20053;-80
2022/12/30 08:09:29;;;;;;;36.10;4.03;;;4.20;99.90;;;;;;5077369;28;20480;-79
2022/12/30 08:11:54;;;;;;;37.20;4.10;;;4.20;99.90;;;;;;5076131;28;20080;-78
2022/12/30 08:14:20;;;;;;;28.73;3.80;;;4.30;99.90;;;;;;5076149;28;20098;-82
2022/12/30 08:16:46;;;;;;;36.28;5.68;;;4.30;99.90;;;;;;5078062;28;20040;-77
2022/12/30 08:19:12;;;;;;;38.05;4.20;;;4.30;99.90;;;;;;5077380;28;20127;-77
2022/12/30 08:21:38;;;;;;;38.08;3.92;;;4.30;99.90;;;;;;5078164;28;20048;-79
2022/12/30 08:24:04;;;;;;;42.50;4.95;;;4.30;99.90;;;;;;5059565;28;20048;-80
2022/12/30 08:26:29;;;;;;;29.48;3.90;;;4.40;99.90;;;;;;5076667;28;20052;-82
2022/12/30 08:28:55;;;;;;;37.60;4.18;;;4.50;99.90;;;;;;5076694;28;20110;-82
2022/12/30 08:31:24;;;;;;;22.15;3.42;;;4.50;99.90;;;;;;5059404;28;20056;-78
2022/12/30 08:33:50;;;;;;;24.50;3.55;;;4.50;99.90;;;;;;5077419;28;20090;-78
2022/12/30 08:36:19;;;;;;;28.80;3.70;;;4.60;99.90;;;;;;5077224;28;20052;-82
2022/12/30 08:38:47;;;;;;;21.30;3.58;;;4.60;99.90;;;;;;5077893;28;20074;-84
2022/12/30 08:41:15;;;;;;;30.30;3.75;;;4.70;99.90;;;;;;5076468;28;20117;-80
2022/12/30 08:43:40;;;;;;;;;;;4.80;99.90;;;;;;5077290;28;20080;-81
2022/12/30 08:46:07;;;;;;;36.25;3.40;;;4.80;99.90;;;;;;5077482;28;19997;-78
2022/12/30 08:48:32;;;;;;;32.22;4.22;;;4.80;99.90;;;;;;5077003;28;20054;-81
2022/12/30 08:50:59;;;;;;;31.10;4.00;;;4.90;99.90;;;;;;5076514;28;20516;-82
2022/12/30 08:53:25;;;;;;;30.50;3.90;;;5.00;99.90;;;;;;5076374;28;20052;-80
2022/12/30 08:56:04;;;;;;;38.97;5.53;;;5.00;99.90;;;;;;5076438;28;20051;-82
2022/12/30 08:58:31;;;;;;;23.27;3.65;;;5.10;99.90;;;;;;5077092;28;20082;-78
2022/12/30 09:00:57;;;;;;;25.60;3.08;;;5.10;99.90;;;;;;5058954;28;20389;-82
2022/12/30 09:03:23;;;;;;;25.05;3.85;;;5.20;99.90;;;;;;5075079;28;20044;-80
2022/12/30 09:05:52;;;;;;;33.22;4.38;;;5.20;99.90;;;;;;5076255;28;20049;-81
2022/12/30 09:08:19;;;;;;;24.90;3.50;;;5.30;99.90;;;;;;5076088;28;20173;-80
2022/12/30 09:10:54;;;;;;;34.75;4.68;;;5.40;99.90;;;;;;5075671;28;20043;-78
2022/12/30 09:13:20;;;;;;;29.50;3.75;;;5.40;99.90;;;;;;5075995;28;20052;-78
2022/12/30 09:15:45;;;;;;;28.23;3.63;;;5.40;99.90;;;;;;5075569;28;20045;-82
2022/12/30 09:18:11;;;;;;;23.52;4.05;;;5.50;99.90;;;;;;5076215;28;20495;-82
2022/12/30 09:20:37;;;;;;;27.38;4.18;;;5.50;99.90;;;;;;5075593;28;20037;-79
2022/12/30 09:23:03;;;;;;;21.52;4.22;;;5.50;99.90;;;;;;5074739;28;20045;-81
2022/12/30 09:25:28;;;;;;;19.95;3.25;;;5.60;99.90;;;;;;5058018;28;20048;-79
2022/12/30 09:27:54;;;;;;;27.13;3.65;;;5.60;99.90;;;;;;5074006;28;20083;-78
2022/12/30 09:30:20;;;;;;;27.63;3.92;;;5.70;99.90;;;;;;5074113;28;20132;-80
2022/12/30 09:32:45;;;;;;;23.88;4.75;;;5.70;99.90;;;;;;5074621;28;20052;-78
2022/12/30 09:35:11;;;;;;;25.35;3.92;;;5.70;99.90;;;;;;5075324;28;20052;-81
2022/12/30 09:37:38;;;;;;;23.27;4.68;;;5.70;99.90;;;;;;5075319;28;20162;-80
2022/12/30 09:40:04;;;;;;;28.85;3.60;;;5.80;99.90;;;;;;5074144;28;20052;-79
2022/12/30 09:45:34;;;;;;;31.85;4.28;;;5.90;99.90;;;;;;5075265;28;20049;-80
2022/12/30 09:48:05;;;;;;;33.00;4.18;;;5.90;99.90;;;;;;5075134;28;20053;-81
2022/12/30 09:50:42;;;;;;;21.60;3.92;;;5.90;99.90;;;;;;5074550;28;20045;-80
2022/12/30 09:53:36;;;;;;;24.75;3.40;;;6.00;99.90;;;;;;5075826;28;20060;-81
2022/12/30 09:56:14;;;;;;;20.73;3.88;;;6.00;99.90;;;;;;5074471;28;20136;-79
2022/12/30 09:58:42;;;;;;;18.15;3.08;;;6.00;99.90;;;;;;5075555;28;20518;-80
2022/12/30 10:01:14;;;;;;;21.58;3.10;;;6.10;99.90;;;;;;5074735;28;20075;-80
2022/12/30 10:03:39;;;;;;;24.45;3.22;;;6.10;99.90;;;;;;5073718;28;20396;-81
2022/12/30 10:06:19;;;;;;;29.85;5.43;;;6.10;99.90;;;;;;5075693;28;20045;-82
2022/12/30 10:09:05;;;;;;;14.82;4.28;;;6.20;99.90;;;;;;5075159;28;20044;-79
2022/12/30 10:12:04;;;;;;;20.08;5.05;;;6.30;99.90;;;;;;5075524;28;20122;-82
2022/12/30 10:14:36;;;;;;;27.83;4.78;;;6.30;99.90;;;;;;5075994;28;20044;-81
2022/12/30 10:17:22;;;;;;;21.27;3.97;;;6.40;99.90;;;;;;5074540;28;20397;-80
2022/12/30 10:20:20;;;;;;;20.20;4.00;;;6.50;99.90;;;;;;5087677;28;20047;-81
2022/12/30 10:23:03;;;;;;;28.00;4.38;;;6.60;99.90;;;;;;5088887;28;20041;-81
2022/12/30 10:25:49;;;;;;;27.23;4.53;;;6.60;99.90;;;;;;5066358;28;20048;-81
2022/12/30 10:28:33;;;;;;;21.92;4.72;;;6.70;99.90;;;;;;5079626;28;20057;-81
2022/12/30 10:30:59;;;;;;;31.50;4.50;;;6.70;99.90;;;;;;5079093;28;20048;-79
2022/12/30 10:33:25;;;;;;;24.75;4.28;;;6.80;99.90;;;;;;5077659;28;20040;-79
2022/12/30 10:36:10;;;;;;;19.63;3.67;;;6.90;99.90;;;;;;5074949;28;20186;-79
2022/12/30 10:38:37;;;;;;;25.42;5.20;;;6.90;99.90;;;;;;5073827;28;20040;-81
2022/12/30 10:41:23;;;;;;;12.73;3.90;;;6.90;99.90;;;;;;5056473;28;20393;-80
2022/12/30 10:44:08;;;;;;;18.75;3.35;;;7.00;99.90;;;;;;5073472;28;20477;-82
2022/12/30 10:47:04;;;;;;;22.67;3.53;;;7.00;99.90;;;;;;5056062;28;20044;-81
2022/12/30 10:50:02;;;;;;;14.98;3.40;;;7.10;99.90;;;;;;5073040;28;20431;-80
2022/12/30 10:52:30;;;;;;;18.15;4.07;;;7.10;99.90;;;;;;5073311;28;20125;-80
2022/12/30 10:54:56;;;;;;;16.23;2.90;;;7.20;99.90;;;;;;5073902;28;20092;-80
2022/12/30 10:57:25;;;;;;;20.35;3.30;;;7.20;99.90;;;;;;5072459;28;20080;-83
2022/12/30 10:59:55;;;;;;;21.90;3.75;;;7.20;99.90;;;;;;5072310;28;20455;-79
2022/12/30 11:02:37;;;;;;;19.48;3.55;;;7.20;99.90;;;;;;5056278;28;20056;-81
2022/12/30 11:05:31;;;;;;;14.85;2.63;;;7.30;99.90;;;;;;5073078;28;20045;-79
2022/12/30 11:07:59;;;;;;;25.60;2.70;;;7.30;99.90;;;;;;5073787;28;20243;-80
2022/12/30 11:10:25;;;;;;;;;;;7.40;99.90;;;;;;5074227;28;20051;-81
2022/12/30 11:15:52;;;;;;;14.50;2.92;;;7.40;99.90;;;;;;5073766;28;20048;-80
2022/12/30 11:18:19;;;;;;;18.98;3.88;;;7.50;99.90;;;;;;5073584;28;20068;-80
2022/12/30 11:20:52;;;;;;;13.15;2.97;;;7.50;99.90;;;;;;5072806;28;20053;-80
2022/12/30 11:23:39;;;;;;;13.70;2.78;;;7.50;99.90;;;;;;5072339;28;20052;-77
2022/12/30 11:26:09;;;;;;;20.65;3.47;;;7.60;99.90;;;;;;5073472;28;20056;-77
2022/12/30 11:29:08;;;;;;;20.92;2.47;;;7.60;99.90;;;;;;5072576;28;20054;-77
2022/12/30 11:31:45;;;;;;;18.27;3.10;;;7.70;99.90;;;;;;5050372;28;20496;-80
2022/12/30 11:34:17;;;;;;;13.25;2.88;;;7.70;99.90;;;;;;5075477;28;20082;-78
2022/12/30 11:36:44;;;;;;;12.82;2.75;;;7.70;99.90;;;;;;5077209;28;20060;-79
2022/12/30 11:39:23;;;;;;;19.38;2.58;;;7.70;99.90;;;;;;5076351;28;20056;-78
2022/12/30 11:41:54;;;;;;;17.90;2.90;;;7.80;99.90;;;;;;5077907;28;20048;-78
2022/12/30 11:44:23;;;;;;;17.67;2.90;;;7.80;99.90;;;;;;5077795;28;20048;-79
2022/12/30 11:46:55;;;;;;;16.83;2.30;;;7.80;99.90;;;;;;5077797;28;20083;-79
2022/12/30 11:49:35;;;;;;;17.10;1.90;;;7.80;99.90;;;;;;5110161;28;20140;-79
2022/12/30 11:52:03;;;;;;;16.90;2.58;;;7.80;99.90;;;;;;5077841;28;20388;-81
2022/12/30 11:54:37;;;;;;;11.25;1.92;;;7.90;99.90;;;;;;5077541;28;20075;-78
2022/12/30 11:57:22;;;;;;;15.35;1.77;;;7.90;99.90;;;;;;5060306;28;20098;-79
2022/12/30 11:59:53;;;;;;;12.20;2.15;;;7.90;99.90;;;;;;5076130;28;20059;-80
2022/12/30 12:02:34;;;;;;;13.07;1.98;;;8.00;99.90;;;;;;5076302;28;20052;-78
2022/12/30 12:05:00;;;;;;;12.05;1.30;;;8.00;99.90;;;;;;5060763;28;20052;-80
2022/12/30 12:07:42;;;;;;;13.48;1.80;;;8.00;99.90;;;;;;5076985;28;20127;-78
2022/12/30 12:10:23;;;;;;;14.63;1.98;;;8.10;99.90;;;;;;5078388;28;20405;-78
2022/12/30 12:13:02;;;;;;;12.07;2.10;;;8.10;99.90;;;;;;5076305;28;20071;-82
2022/12/30 12:15:41;;;;;;;8.50;1.48;;;8.10;99.90;;;;;;5079013;28;20140;-82
2022/12/30 12:18:12;;;;;;;8.73;1.23;;;8.20;99.90;;;;;;5077092;28;20175;-77
2022/12/30 12:21:00;;;;;;;14.02;2.45;;;8.20;99.90;;;;;;5076452;28;20062;-76
2022/12/30 12:23:56;;;;;;;17.73;1.45;;;8.20;99.90;;;;;;5077120;28;20048;-79
2022/12/30 12:26:38;;;;;;;15.63;2.00;;;8.30;99.90;;;;;;5076729;28;20165;-79
2022/12/30 12:29:04;;;;;;;15.35;1.90;;;8.30;99.90;;;;;;5075728;28;20457;-81
2022/12/30 12:31:36;;;;;;;16.25;2.40;;;8.30;99.90;;;;;;5075523;28;20083;-78
2022/12/30 12:34:21;;;;;;;17.38;2.03;;;8.30;99.90;;;;;;5076251;28;20114;-81
2022/12/30 12:36:53;;;;;;;10.32;1.73;;;8.30;99.90;;;;;;5075706;28;20084;-81
2022/12/30 12:39:34;;;;;;;16.38;1.88;;;8.30;99.90;;;;;;5076238;28;20131;-81
2022/12/30 12:42:06;;;;;;;23.27;4.32;;;8.30;99.90;;;;;;5076180;28;20109;-81
2022/12/30 12:44:58;;;;;;;25.08;2.63;;;8.40;99.90;;;;;;5076818;28;20039;-79
2022/12/30 12:48:02;;;;;;;17.58;2.63;;;8.40;99.90;;;;;;5075240;28;20049;-80
2022/12/30 12:50:52;;;;;;;15.60;2.70;;;8.50;99.90;;;;;;5076164;28;20495;-79
2022/12/30 12:53:59;;;;;;;63.33;24.55;;;8.50;99.90;;;;;;5075783;28;20516;-77
2022/12/30 12:56:31;;;;;;;20.52;5.90;;;8.60;99.90;;;;;;5017181;28;20080;-82
2022/12/30 12:59:17;;;;;;;14.45;1.92;;;8.60;99.90;;;;;;5070698;28;20051;-78
2022/12/30 13:02:04;;;;;;;17.20;2.95;;;8.60;99.90;;;;;;5076747;28;20045;-81
2022/12/30 13:04:49;;;;;;;;;;;8.70;99.90;;;;;;5077156;28;20381;-80
2022/12/30 13:07:33;;;;;;;12.18;2.33;;;8.60;99.90;;;;;;5076504;28;20314;-79
2022/12/30 13:10:24;;;;;;;7.85;1.05;;;8.70;99.90;;;;;;5075927;28;20048;-79
2022/12/30 13:13:13;;;;;;;11.73;1.50;;;8.70;99.90;;;;;;5075677;28;20098;-77
2022/12/30 13:15:57;;;;;;;20.30;1.90;;;8.70;99.90;;;;;;5072657;28;20060;-78
2022/12/30 13:18:26;;;;;;;16.75;1.88;;;8.70;99.90;;;;;;5075006;28;20436;-78
2022/12/30 13:20:58;;;;;;;15.43;1.88;;;8.70;99.90;;;;;;5075651;28;20058;-79
2022/12/30 13:23:29;;;;;;;16.48;2.10;;;8.70;99.90;;;;;;5076408;28;20052;-80
2022/12/30 13:26:01;;;;;;;13.15;1.83;;;8.80;99.90;;;;;;5075335;28;20044;-77
2022/12/30 13:28:28;;;;;;;26.10;1.95;;;8.80;99.90;;;;;;5075337;28;20083;-79
2022/12/30 13:31:13;;;;;;;14.57;1.55;;;8.80;99.90;;;;;;5074315;28;20045;-81
2022/12/30 13:34:05;;;;;;;10.05;1.20;;;8.80;99.90;;;;;;5074757;28;20144;-81
2022/12/30 13:36:50;;;;;;;12.68;1.98;;;8.90;99.90;;;;;;5075231;28;20075;-79
2022/12/30 13:39:28;;;;;;;13.07;1.60;;;8.90;99.90;;;;;;5075034;28;20051;-79
2022/12/30 13:42:24;;;;;;;14.68;1.80;;;8.90;99.90;;;;;;5074357;28;20049;-79
2022/12/30 13:44:50;;;;;;;;;;;8.90;99.90;;;;;;5075452;28;20052;-76
2022/12/30 13:47:38;;;;;;;12.47;1.80;;;8.90;99.90;;;;;;5074848;28;19920;-76
2022/12/30 13:50:19;;;;;;;13.45;1.90;;;9.00;99.90;;;;;;5074696;28;20050;-75
2022/12/30 13:52:47;;;;;;;13.45;2.42;;;9.00;99.90;;;;;;5075041;28;20060;-78
2022/12/30 13:55:28;;;;;;;14.40;2.75;;;9.10;99.90;;;;;;5073498;28;20048;-78
2022/12/30 13:58:02;;;;;;;12.52;1.95;;;9.10;99.90;;;;;;5073579;28;20063;-76
2022/12/30 14:00:38;;;;;;;15.82;3.05;;;9.10;99.90;;;;;;5074789;28;20072;-76
2022/12/30 14:03:29;;;;;;;15.98;3.10;;;9.10;99.90;;;;;;5074847;28;20045;-76
2022/12/30 14:05:57;;;;;;;15.52;3.30;;;9.10;99.90;;;;;;5071427;28;20076;-77
2022/12/30 14:08:26;;;;;;;12.43;2.40;;;9.10;99.90;;;;;;5074516;28;20091;-75